sensor_id;sensor_type;location;lat;lon;timestamp;P1;durP1;ratioP1;P2;durP2;ratioP2
8046;SDS011;67150;42.516;23.358;2023-07-31T00:01:45;6.87;;;4.13;;
8046;SDS011;67150;42.516;23.358;2023-07-31T00:04:13;3.97;;;3.67;;
8046;SDS011;67150;42.516;23.358;2023-07-31T00:06:40;5.20;;;4.70;;
8046;SDS011;67150;42.516;23.358;2023-07-31T00:09:09;6.13;;;4.50;;
8046;SDS011;67150;42.516;23.358;2023-07-31T00:11:36;5.60;;;4.30;;
8046;SDS011;67150;42.516;23.358;2023-07-31T00:14:03;5.73;;;4.30;;
8046;SDS011;67150;42.516;23.358;2023-07-31T00:16:30;7.90;;;4.37;;
8046;SDS011;67150;42.516;23.358;2023-07-31T00:18:58;4.50;;;4.10;;
8046;SDS011;67150;42.516;23.358;2023-07-31T00:21:25;4.40;;;4.00;;
8046;SDS011;67150;42.516;23.358;2023-07-31T00:23:54;4.53;;;3.80;;
8046;SDS011;67150;42.516;23.358;2023-07-31T00:26:23;4.30;;;3.90;;
8046;SDS011;67150;42.516;23.358;2023-07-31T00:28:50;5.10;;;4.27;;
8046;SDS011;67150;42.516;23.358;2023-07-31T00:31:17;4.83;;;3.80;;
8046;SDS011;67150;42.516;23.358;2023-07-31T00:33:44;4.90;;;4.40;;
8046;SDS011;67150;42.516;23.358;2023-07-31T00:36:12;4.57;;;4.17;;
8046;SDS011;67150;42.516;23.358;2023-07-31T00:38:39;5.63;;;4.43;;
8046;SDS011;67150;42.516;23.358;2023-07-31T00:41:06;5.87;;;4.23;;
8046;SDS011;67150;42.516;23.358;2023-07-31T00:43:35;4.70;;;3.87;;
8046;SDS011;67150;42.516;23.358;2023-07-31T00:46:02;4.30;;;3.90;;
8046;SDS011;67150;42.516;23.358;2023-07-31T00:48:30;4.57;;;3.90;;
8046;SDS011;67150;42.516;23.358;2023-07-31T00:50:58;4.87;;;4.37;;
8046;SDS011;67150;42.516;23.358;2023-07-31T00:53:26;5.00;;;4.53;;
8046;SDS011;67150;42.516;23.358;2023-07-31T00:55:54;6.17;;;4.60;;
8046;SDS011;67150;42.516;23.358;2023-07-31T00:58:22;4.93;;;4.53;;
8046;SDS011;67150;42.516;23.358;2023-07-31T01:00:51;5.23;;;4.73;;
8046;SDS011;67150;42.516;23.358;2023-07-31T01:03:18;4.80;;;4.40;;
8046;SDS011;67150;42.516;23.358;2023-07-31T01:05:48;5.07;;;4.57;;
8046;SDS011;67150;42.516;23.358;2023-07-31T01:08:24;6.70;;;4.57;;
8046;SDS011;67150;42.516;23.358;2023-07-31T01:10:59;4.70;;;4.30;;
8046;SDS011;67150;42.516;23.358;2023-07-31T01:13:30;4.40;;;4.00;;
8046;SDS011;67150;42.516;23.358;2023-07-31T01:15:59;4.80;;;4.30;;
8046;SDS011;67150;42.516;23.358;2023-07-31T01:18:26;4.57;;;4.10;;
8046;SDS011;67150;42.516;23.358;2023-07-31T01:20:54;4.77;;;4.13;;
8046;SDS011;67150;42.516;23.358;2023-07-31T01:23:42;7.00;;;4.80;;
8046;SDS011;67150;42.516;23.358;2023-07-31T01:26:34;5.60;;;5.10;;
8046;SDS011;67150;42.516;23.358;2023-07-31T01:29:07;5.53;;;5.13;;
8046;SDS011;67150;42.516;23.358;2023-07-31T01:31:39;5.70;;;5.20;;
8046;SDS011;67150;42.516;23.358;2023-07-31T01:34:08;5.67;;;5.17;;
8046;SDS011;67150;42.516;23.358;2023-07-31T01:36:38;5.93;;;5.43;;
8046;SDS011;67150;42.516;23.358;2023-07-31T01:39:05;6.60;;;5.20;;
8046;SDS011;67150;42.516;23.358;2023-07-31T01:41:34;6.43;;;5.63;;
8046;SDS011;67150;42.516;23.358;2023-07-31T01:44:01;5.67;;;5.17;;
8046;SDS011;67150;42.516;23.358;2023-07-31T01:46:29;5.60;;;5.10;;
8046;SDS011;67150;42.516;23.358;2023-07-31T01:48:56;5.50;;;5.00;;
8046;SDS011;67150;42.516;23.358;2023-07-31T01:51:24;5.67;;;5.17;;
8046;SDS011;67150;42.516;23.358;2023-07-31T01:53:51;7.50;;;5.10;;
8046;SDS011;67150;42.516;23.358;2023-07-31T01:56:18;5.73;;;5.23;;
8046;SDS011;67150;42.516;23.358;2023-07-31T01:58:47;5.60;;;5.10;;
8046;SDS011;67150;42.516;23.358;2023-07-31T02:01:14;5.17;;;4.77;;
8046;SDS011;67150;42.516;23.358;2023-07-31T02:03:40;5.37;;;4.77;;
8046;SDS011;67150;42.516;23.358;2023-07-31T02:06:08;4.83;;;4.50;;
8046;SDS011;67150;42.516;23.358;2023-07-31T02:08:35;4.97;;;4.57;;
8046;SDS011;67150;42.516;23.358;2023-07-31T02:11:02;4.33;;;4.03;;
8046;SDS011;67150;42.516;23.358;2023-07-31T02:13:30;4.60;;;4.20;;
8046;SDS011;67150;42.516;23.358;2023-07-31T02:15:58;4.30;;;4.00;;
8046;SDS011;67150;42.516;23.358;2023-07-31T02:18:26;4.50;;;4.10;;
8046;SDS011;67150;42.516;23.358;2023-07-31T02:20:53;4.30;;;3.90;;
8046;SDS011;67150;42.516;23.358;2023-07-31T02:23:21;4.70;;;4.13;;
8046;SDS011;67150;42.516;23.358;2023-07-31T02:25:49;4.87;;;4.40;;
8046;SDS011;67150;42.516;23.358;2023-07-31T02:28:16;4.33;;;3.93;;
8046;SDS011;67150;42.516;23.358;2023-07-31T02:30:43;4.80;;;4.40;;
8046;SDS011;67150;42.516;23.358;2023-07-31T02:33:13;4.80;;;3.50;;
8046;SDS011;67150;42.516;23.358;2023-07-31T02:35:42;4.33;;;3.93;;
8046;SDS011;67150;42.516;23.358;2023-07-31T02:38:09;4.27;;;3.63;;
8046;SDS011;67150;42.516;23.358;2023-07-31T02:40:36;3.73;;;3.43;;
8046;SDS011;67150;42.516;23.358;2023-07-31T02:43:04;3.80;;;3.50;;
8046;SDS011;67150;42.516;23.358;2023-07-31T02:45:31;3.70;;;3.40;;
8046;SDS011;67150;42.516;23.358;2023-07-31T02:47:58;5.13;;;3.70;;
8046;SDS011;67150;42.516;23.358;2023-07-31T02:50:27;4.53;;;3.50;;
8046;SDS011;67150;42.516;23.358;2023-07-31T02:52:54;3.77;;;3.47;;
8046;SDS011;67150;42.516;23.358;2023-07-31T02:55:22;3.80;;;3.50;;
8046;SDS011;67150;42.516;23.358;2023-07-31T02:57:49;4.30;;;3.80;;
8046;SDS011;67150;42.516;23.358;2023-07-31T03:00:17;4.00;;;3.70;;
8046;SDS011;67150;42.516;23.358;2023-07-31T03:02:45;4.77;;;4.00;;
8046;SDS011;67150;42.516;23.358;2023-07-31T03:05:12;4.40;;;4.00;;
8046;SDS011;67150;42.516;23.358;2023-07-31T03:07:41;3.87;;;3.57;;
8046;SDS011;67150;42.516;23.358;2023-07-31T03:10:09;4.67;;;4.17;;
8046;SDS011;67150;42.516;23.358;2023-07-31T03:12:36;3.90;;;3.63;;
8046;SDS011;67150;42.516;23.358;2023-07-31T03:15:03;4.20;;;3.80;;
8046;SDS011;67150;42.516;23.358;2023-07-31T03:17:31;4.37;;;3.50;;
8046;SDS011;67150;42.516;23.358;2023-07-31T03:19:58;4.57;;;4.17;;
8046;SDS011;67150;42.516;23.358;2023-07-31T03:22:26;4.53;;;4.13;;
8046;SDS011;67150;42.516;23.358;2023-07-31T03:24:55;4.80;;;3.93;;
8046;SDS011;67150;42.516;23.358;2023-07-31T03:27:22;7.97;;;3.90;;
8046;SDS011;67150;42.516;23.358;2023-07-31T03:29:49;5.13;;;3.93;;
8046;SDS011;67150;42.516;23.358;2023-07-31T03:32:17;4.60;;;4.20;;
8046;SDS011;67150;42.516;23.358;2023-07-31T03:34:44;4.87;;;4.47;;
8046;SDS011;67150;42.516;23.358;2023-07-31T03:37:11;5.07;;;4.67;;
8046;SDS011;67150;42.516;23.358;2023-07-31T03:39:39;5.53;;;5.07;;
8046;SDS011;67150;42.516;23.358;2023-07-31T03:42:07;6.33;;;5.77;;
8046;SDS011;67150;42.516;23.358;2023-07-31T03:44:35;6.23;;;5.63;;
8046;SDS011;67150;42.516;23.358;2023-07-31T03:47:02;6.87;;;6.17;;
8046;SDS011;67150;42.516;23.358;2023-07-31T03:49:32;6.50;;;6.00;;
8046;SDS011;67150;42.516;23.358;2023-07-31T03:51:59;6.43;;;5.93;;
8046;SDS011;67150;42.516;23.358;2023-07-31T03:54:27;6.70;;;6.00;;
8046;SDS011;67150;42.516;23.358;2023-07-31T03:56:54;7.47;;;6.67;;
8046;SDS011;67150;42.516;23.358;2023-07-31T03:59:23;6.47;;;5.97;;
8046;SDS011;67150;42.516;23.358;2023-07-31T04:01:50;7.23;;;6.53;;
8046;SDS011;67150;42.516;23.358;2023-07-31T04:04:17;7.40;;;6.70;;
8046;SDS011;67150;42.516;23.358;2023-07-31T04:06:45;7.83;;;7.13;;
8046;SDS011;67150;42.516;23.358;2023-07-31T04:09:12;7.73;;;7.07;;
8046;SDS011;67150;42.516;23.358;2023-07-31T04:11:39;7.93;;;7.23;;
8046;SDS011;67150;42.516;23.358;2023-07-31T04:14:06;8.83;;;7.93;;
8046;SDS011;67150;42.516;23.358;2023-07-31T04:16:35;8.80;;;7.90;;
8046;SDS011;67150;42.516;23.358;2023-07-31T04:19:03;9.43;;;7.97;;
8046;SDS011;67150;42.516;23.358;2023-07-31T04:21:30;8.73;;;8.03;;
8046;SDS011;67150;42.516;23.358;2023-07-31T04:23:58;10.03;;;9.10;;
8046;SDS011;67150;42.516;23.358;2023-07-31T04:26:25;10.87;;;9.93;;
8046;SDS011;67150;42.516;23.358;2023-07-31T04:28:52;10.53;;;9.63;;
8046;SDS011;67150;42.516;23.358;2023-07-31T04:31:20;10.63;;;9.73;;
8046;SDS011;67150;42.516;23.358;2023-07-31T04:33:48;11.60;;;10.60;;
8046;SDS011;67150;42.516;23.358;2023-07-31T04:36:15;11.40;;;10.33;;
8046;SDS011;67150;42.516;23.358;2023-07-31T04:38:43;10.57;;;9.67;;
8046;SDS011;67150;42.516;23.358;2023-07-31T04:41:10;10.57;;;9.67;;
8046;SDS011;67150;42.516;23.358;2023-07-31T04:43:37;12.00;;;10.90;;
8046;SDS011;67150;42.516;23.358;2023-07-31T04:46:06;11.90;;;10.93;;
8046;SDS011;67150;42.516;23.358;2023-07-31T04:48:33;13.07;;;11.87;;
8046;SDS011;67150;42.516;23.358;2023-07-31T04:51:02;13.57;;;12.23;;
8046;SDS011;67150;42.516;23.358;2023-07-31T04:53:29;13.60;;;12.30;;
8046;SDS011;67150;42.516;23.358;2023-07-31T04:55:57;14.27;;;12.97;;
8046;SDS011;67150;42.516;23.358;2023-07-31T04:58:24;13.73;;;12.53;;
8046;SDS011;67150;42.516;23.358;2023-07-31T05:00:51;14.27;;;13.07;;
8046;SDS011;67150;42.516;23.358;2023-07-31T05:03:19;14.57;;;13.23;;
8046;SDS011;67150;42.516;23.358;2023-07-31T05:05:46;15.07;;;13.77;;
8046;SDS011;67150;42.516;23.358;2023-07-31T05:08:15;15.33;;;13.93;;
8046;SDS011;67150;42.516;23.358;2023-07-31T05:10:46;14.43;;;13.13;;
8046;SDS011;67150;42.516;23.358;2023-07-31T05:13:14;15.47;;;14.07;;
8046;SDS011;67150;42.516;23.358;2023-07-31T05:15:41;15.10;;;13.77;;
8046;SDS011;67150;42.516;23.358;2023-07-31T05:18:07;14.17;;;12.97;;
8046;SDS011;67150;42.516;23.358;2023-07-31T05:20:35;16.97;;;15.13;;
8046;SDS011;67150;42.516;23.358;2023-07-31T05:23:02;16.20;;;14.70;;
8046;SDS011;67150;42.516;23.358;2023-07-31T05:25:31;15.53;;;13.93;;
8046;SDS011;67150;42.516;23.358;2023-07-31T05:27:58;16.30;;;14.80;;
8046;SDS011;67150;42.516;23.358;2023-07-31T05:30:25;15.70;;;14.27;;
8046;SDS011;67150;42.516;23.358;2023-07-31T05:32:53;15.87;;;14.47;;
8046;SDS011;67150;42.516;23.358;2023-07-31T05:35:20;15.90;;;14.47;;
8046;SDS011;67150;42.516;23.358;2023-07-31T05:37:47;16.53;;;15.10;;
8046;SDS011;67150;42.516;23.358;2023-07-31T05:40:15;16.53;;;14.93;;
8046;SDS011;67150;42.516;23.358;2023-07-31T05:42:44;16.93;;;15.43;;
8046;SDS011;67150;42.516;23.358;2023-07-31T05:45:11;15.73;;;14.33;;
8046;SDS011;67150;42.516;23.358;2023-07-31T05:47:39;16.33;;;14.93;;
8046;SDS011;67150;42.516;23.358;2023-07-31T05:50:07;16.03;;;14.53;;
8046;SDS011;67150;42.516;23.358;2023-07-31T05:52:35;16.47;;;14.97;;
8046;SDS011;67150;42.516;23.358;2023-07-31T05:55:02;16.53;;;15.03;;
8046;SDS011;67150;42.516;23.358;2023-07-31T05:57:30;16.53;;;14.93;;
8046;SDS011;67150;42.516;23.358;2023-07-31T05:59:58;17.27;;;15.67;;
8046;SDS011;67150;42.516;23.358;2023-07-31T06:02:26;15.37;;;14.07;;
8046;SDS011;67150;42.516;23.358;2023-07-31T06:04:53;16.00;;;14.50;;
8046;SDS011;67150;42.516;23.358;2023-07-31T06:07:20;17.17;;;15.47;;
8046;SDS011;67150;42.516;23.358;2023-07-31T06:09:48;16.00;;;14.50;;
8046;SDS011;67150;42.516;23.358;2023-07-31T06:12:15;16.20;;;14.73;;
8046;SDS011;67150;42.516;23.358;2023-07-31T06:14:44;15.57;;;14.17;;
8046;SDS011;67150;42.516;23.358;2023-07-31T06:17:12;15.93;;;14.50;;
8046;SDS011;67150;42.516;23.358;2023-07-31T06:19:40;16.90;;;15.40;;
8046;SDS011;67150;42.516;23.358;2023-07-31T06:22:07;15.37;;;14.03;;
8046;SDS011;67150;42.516;23.358;2023-07-31T06:24:34;15.73;;;14.20;;
8046;SDS011;67150;42.516;23.358;2023-07-31T06:27:02;14.73;;;13.43;;
8046;SDS011;67150;42.516;23.358;2023-07-31T06:29:29;13.63;;;12.43;;
8046;SDS011;67150;42.516;23.358;2023-07-31T06:31:56;14.43;;;13.13;;
8046;SDS011;67150;42.516;23.358;2023-07-31T06:34:25;13.73;;;12.53;;
8046;SDS011;67150;42.516;23.358;2023-07-31T06:36:53;13.93;;;12.67;;
8046;SDS011;67150;42.516;23.358;2023-07-31T06:39:20;13.07;;;11.87;;
8046;SDS011;67150;42.516;23.358;2023-07-31T06:41:47;12.90;;;11.70;;
8046;SDS011;67150;42.516;23.358;2023-07-31T06:44:15;11.93;;;10.93;;
8046;SDS011;67150;42.516;23.358;2023-07-31T06:46:42;11.47;;;10.47;;
8046;SDS011;67150;42.516;23.358;2023-07-31T06:49:09;10.93;;;9.93;;
8046;SDS011;67150;42.516;23.358;2023-07-31T06:51:38;10.60;;;9.70;;
8046;SDS011;67150;42.516;23.358;2023-07-31T06:54:05;10.50;;;9.60;;
8046;SDS011;67150;42.516;23.358;2023-07-31T06:56:33;8.80;;;8.10;;
8046;SDS011;67150;42.516;23.358;2023-07-31T06:59:00;8.80;;;8.10;;
8046;SDS011;67150;42.516;23.358;2023-07-31T07:01:27;9.07;;;8.30;;
8046;SDS011;67150;42.516;23.358;2023-07-31T07:03:55;9.43;;;8.63;;
8046;SDS011;67150;42.516;23.358;2023-07-31T07:06:22;8.67;;;7.83;;
8046;SDS011;67150;42.516;23.358;2023-07-31T07:08:51;8.53;;;7.83;;
8046;SDS011;67150;42.516;23.358;2023-07-31T07:11:18;8.50;;;7.80;;
8046;SDS011;67150;42.516;23.358;2023-07-31T07:13:45;8.47;;;7.70;;
8046;SDS011;67150;42.516;23.358;2023-07-31T07:16:12;7.27;;;6.67;;
8046;SDS011;67150;42.516;23.358;2023-07-31T07:18:40;7.23;;;6.67;;
8046;SDS011;67150;42.516;23.358;2023-07-31T07:21:07;8.43;;;6.90;;
8046;SDS011;67150;42.516;23.358;2023-07-31T07:23:34;6.90;;;6.30;;
8046;SDS011;67150;42.516;23.358;2023-07-31T07:26:03;6.90;;;6.40;;
8046;SDS011;67150;42.516;23.358;2023-07-31T07:28:32;6.20;;;5.80;;
8046;SDS011;67150;42.516;23.358;2023-07-31T07:30:59;6.37;;;5.87;;
8046;SDS011;67150;42.516;23.358;2023-07-31T07:33:26;6.30;;;5.77;;
8046;SDS011;67150;42.516;23.358;2023-07-31T07:35:54;5.60;;;5.20;;
8046;SDS011;67150;42.516;23.358;2023-07-31T07:38:21;5.73;;;5.23;;
8046;SDS011;67150;42.516;23.358;2023-07-31T07:40:48;5.53;;;5.03;;
8046;SDS011;67150;42.516;23.358;2023-07-31T07:43:20;5.17;;;4.77;;
8046;SDS011;67150;42.516;23.358;2023-07-31T07:45:47;5.00;;;4.70;;
8046;SDS011;67150;42.516;23.358;2023-07-31T07:48:14;4.50;;;4.20;;
8046;SDS011;67150;42.516;23.358;2023-07-31T07:50:42;4.63;;;4.27;;
8046;SDS011;67150;42.516;23.358;2023-07-31T07:53:10;4.97;;;4.67;;
8046;SDS011;67150;42.516;23.358;2023-07-31T07:55:37;4.83;;;4.43;;
8046;SDS011;67150;42.516;23.358;2023-07-31T07:58:04;4.57;;;4.10;;
8046;SDS011;67150;42.516;23.358;2023-07-31T08:00:33;4.30;;;4.00;;
8046;SDS011;67150;42.516;23.358;2023-07-31T08:03:00;4.33;;;4.00;;
8046;SDS011;67150;42.516;23.358;2023-07-31T08:05:27;4.43;;;4.03;;
8046;SDS011;67150;42.516;23.358;2023-07-31T08:07:55;4.27;;;3.97;;
8046;SDS011;67150;42.516;23.358;2023-07-31T08:10:23;3.80;;;3.50;;
8046;SDS011;67150;42.516;23.358;2023-07-31T08:12:50;3.50;;;3.20;;
8046;SDS011;67150;42.516;23.358;2023-07-31T08:15:17;3.20;;;3.00;;
8046;SDS011;67150;42.516;23.358;2023-07-31T08:17:46;3.37;;;3.13;;
8046;SDS011;67150;42.516;23.358;2023-07-31T08:20:13;3.10;;;2.90;;
8046;SDS011;67150;42.516;23.358;2023-07-31T08:22:41;3.00;;;2.80;;
8046;SDS011;67150;42.516;23.358;2023-07-31T08:25:08;3.20;;;3.00;;
8046;SDS011;67150;42.516;23.358;2023-07-31T08:27:35;3.20;;;3.00;;
8046;SDS011;67150;42.516;23.358;2023-07-31T08:30:03;3.47;;;3.03;;
8046;SDS011;67150;42.516;23.358;2023-07-31T08:32:31;3.53;;;3.13;;
8046;SDS011;67150;42.516;23.358;2023-07-31T08:35:00;3.73;;;3.23;;
8046;SDS011;67150;42.516;23.358;2023-07-31T08:37:28;3.00;;;2.80;;
8046;SDS011;67150;42.516;23.358;2023-07-31T08:39:55;3.23;;;3.03;;
8046;SDS011;67150;42.516;23.358;2023-07-31T08:42:23;3.17;;;2.97;;
8046;SDS011;67150;42.516;23.358;2023-07-31T08:44:51;3.30;;;3.10;;
8046;SDS011;67150;42.516;23.358;2023-07-31T08:47:20;3.00;;;2.80;;
8046;SDS011;67150;42.516;23.358;2023-07-31T08:49:48;3.27;;;3.00;;
8046;SDS011;67150;42.516;23.358;2023-07-31T08:52:19;3.40;;;3.10;;
8046;SDS011;67150;42.516;23.358;2023-07-31T08:54:47;3.43;;;3.23;;
8046;SDS011;67150;42.516;23.358;2023-07-31T08:57:14;3.47;;;3.20;;
8046;SDS011;67150;42.516;23.358;2023-07-31T08:59:42;3.00;;;2.80;;
8046;SDS011;67150;42.516;23.358;2023-07-31T09:02:10;3.10;;;2.90;;
8046;SDS011;67150;42.516;23.358;2023-07-31T09:04:40;2.93;;;2.73;;
8046;SDS011;67150;42.516;23.358;2023-07-31T09:07:08;3.23;;;3.03;;
8046;SDS011;67150;42.516;23.358;2023-07-31T09:09:40;3.00;;;2.80;;
8046;SDS011;67150;42.516;23.358;2023-07-31T09:12:07;2.93;;;2.70;;
8046;SDS011;67150;42.516;23.358;2023-07-31T09:14:35;2.90;;;2.70;;
8046;SDS011;67150;42.516;23.358;2023-07-31T09:17:03;2.90;;;2.70;;
8046;SDS011;67150;42.516;23.358;2023-07-31T09:19:32;2.63;;;2.43;;
8046;SDS011;67150;42.516;23.358;2023-07-31T09:22:03;2.90;;;2.40;;
8046;SDS011;67150;42.516;23.358;2023-07-31T09:24:31;3.00;;;2.80;;
8046;SDS011;67150;42.516;23.358;2023-07-31T09:27:01;3.50;;;2.73;;
8046;SDS011;67150;42.516;23.358;2023-07-31T09:29:28;2.60;;;2.40;;
8046;SDS011;67150;42.516;23.358;2023-07-31T09:31:56;2.83;;;2.63;;
8046;SDS011;67150;42.516;23.358;2023-07-31T09:34:28;3.63;;;2.70;;
8046;SDS011;67150;42.516;23.358;2023-07-31T09:36:57;2.53;;;2.33;;
8046;SDS011;67150;42.516;23.358;2023-07-31T09:39:27;2.60;;;2.40;;
8046;SDS011;67150;42.516;23.358;2023-07-31T09:41:56;2.77;;;2.53;;
8046;SDS011;67150;42.516;23.358;2023-07-31T09:44:38;2.70;;;2.13;;
8046;SDS011;67150;42.516;23.358;2023-07-31T09:47:07;2.40;;;2.30;;
8046;SDS011;67150;42.516;23.358;2023-07-31T09:49:49;2.83;;;2.63;;
8046;SDS011;67150;42.516;23.358;2023-07-31T09:52:16;2.50;;;2.30;;
8046;SDS011;67150;42.516;23.358;2023-07-31T09:54:44;2.20;;;2.10;;
8046;SDS011;67150;42.516;23.358;2023-07-31T09:57:11;2.80;;;2.57;;
8046;SDS011;67150;42.516;23.358;2023-07-31T09:59:41;2.37;;;2.20;;
8046;SDS011;67150;42.516;23.358;2023-07-31T10:02:08;2.53;;;2.33;;
8046;SDS011;67150;42.516;23.358;2023-07-31T10:04:41;2.50;;;2.40;;
8046;SDS011;67150;42.516;23.358;2023-07-31T10:07:10;2.53;;;2.33;;
8046;SDS011;67150;42.516;23.358;2023-07-31T10:09:38;2.27;;;2.17;;
8046;SDS011;67150;42.516;23.358;2023-07-31T10:12:06;2.47;;;2.37;;
8046;SDS011;67150;42.516;23.358;2023-07-31T10:14:38;2.40;;;2.30;;
8046;SDS011;67150;42.516;23.358;2023-07-31T10:17:08;2.30;;;2.10;;
8046;SDS011;67150;42.516;23.358;2023-07-31T10:19:35;2.17;;;2.07;;
8046;SDS011;67150;42.516;23.358;2023-07-31T10:22:03;2.50;;;2.30;;
8046;SDS011;67150;42.516;23.358;2023-07-31T10:24:32;2.30;;;2.10;;
8046;SDS011;67150;42.516;23.358;2023-07-31T10:27:03;2.37;;;2.27;;
8046;SDS011;67150;42.516;23.358;2023-07-31T10:29:31;2.63;;;2.40;;
8046;SDS011;67150;42.516;23.358;2023-07-31T10:31:59;2.20;;;2.10;;
8046;SDS011;67150;42.516;23.358;2023-07-31T10:34:29;2.40;;;2.20;;
8046;SDS011;67150;42.516;23.358;2023-07-31T10:39:55;2.70;;;2.50;;
8046;SDS011;67150;42.516;23.358;2023-07-31T10:42:28;2.20;;;2.10;;
8046;SDS011;67150;42.516;23.358;2023-07-31T10:44:57;2.60;;;2.40;;
8046;SDS011;67150;42.516;23.358;2023-07-31T10:47:25;3.20;;;2.50;;
8046;SDS011;67150;42.516;23.358;2023-07-31T10:49:54;3.83;;;2.33;;
8046;SDS011;67150;42.516;23.358;2023-07-31T10:52:44;2.37;;;2.27;;
8046;SDS011;67150;42.516;23.358;2023-07-31T10:55:15;2.33;;;2.13;;
8046;SDS011;67150;42.516;23.358;2023-07-31T10:57:51;3.00;;;2.67;;
8046;SDS011;67150;42.516;23.358;2023-07-31T11:00:20;2.50;;;2.30;;
8046;SDS011;67150;42.516;23.358;2023-07-31T11:02:59;2.63;;;2.43;;
8046;SDS011;67150;42.516;23.358;2023-07-31T11:08:19;2.50;;;2.40;;
8046;SDS011;67150;42.516;23.358;2023-07-31T11:10:49;2.40;;;2.30;;
8046;SDS011;67150;42.516;23.358;2023-07-31T11:13:18;2.60;;;2.40;;
8046;SDS011;67150;42.516;23.358;2023-07-31T11:15:45;2.47;;;2.30;;
8046;SDS011;67150;42.516;23.358;2023-07-31T11:18:12;2.70;;;2.50;;
8046;SDS011;67150;42.516;23.358;2023-07-31T11:20:40;2.60;;;2.40;;
8046;SDS011;67150;42.516;23.358;2023-07-31T11:23:09;2.27;;;2.17;;
8046;SDS011;67150;42.516;23.358;2023-07-31T11:25:37;2.50;;;2.40;;
8046;SDS011;67150;42.516;23.358;2023-07-31T11:28:07;2.40;;;2.20;;
8046;SDS011;67150;42.516;23.358;2023-07-31T11:30:36;2.73;;;2.53;;
8046;SDS011;67150;42.516;23.358;2023-07-31T11:33:04;2.30;;;2.20;;
8046;SDS011;67150;42.516;23.358;2023-07-31T11:35:32;2.13;;;2.03;;
8046;SDS011;67150;42.516;23.358;2023-07-31T11:38:01;3.40;;;2.10;;
8046;SDS011;67150;42.516;23.358;2023-07-31T11:40:30;2.63;;;2.43;;
8046;SDS011;67150;42.516;23.358;2023-07-31T11:42:58;2.50;;;2.30;;
8046;SDS011;67150;42.516;23.358;2023-07-31T11:45:30;2.43;;;2.23;;
8046;SDS011;67150;42.516;23.358;2023-07-31T11:47:58;2.40;;;2.30;;
8046;SDS011;67150;42.516;23.358;2023-07-31T11:50:25;2.40;;;2.30;;
8046;SDS011;67150;42.516;23.358;2023-07-31T11:52:54;2.67;;;2.47;;
8046;SDS011;67150;42.516;23.358;2023-07-31T11:55:26;2.83;;;2.20;;
8046;SDS011;67150;42.516;23.358;2023-07-31T11:57:55;2.57;;;2.37;;
8046;SDS011;67150;42.516;23.358;2023-07-31T12:00:26;2.13;;;2.00;;
8046;SDS011;67150;42.516;23.358;2023-07-31T12:02:54;2.20;;;2.10;;
8046;SDS011;67150;42.516;23.358;2023-07-31T12:05:22;2.30;;;2.20;;
8046;SDS011;67150;42.516;23.358;2023-07-31T12:07:50;2.40;;;2.20;;
8046;SDS011;67150;42.516;23.358;2023-07-31T12:10:28;3.33;;;2.20;;
8046;SDS011;67150;42.516;23.358;2023-07-31T12:12:59;2.50;;;2.30;;
8046;SDS011;67150;42.516;23.358;2023-07-31T12:15:34;3.20;;;2.30;;
8046;SDS011;67150;42.516;23.358;2023-07-31T12:18:04;2.20;;;2.10;;
8046;SDS011;67150;42.516;23.358;2023-07-31T12:20:32;2.20;;;2.10;;
8046;SDS011;67150;42.516;23.358;2023-07-31T12:23:00;2.20;;;2.10;;
8046;SDS011;67150;42.516;23.358;2023-07-31T12:25:31;2.53;;;2.33;;
8046;SDS011;67150;42.516;23.358;2023-07-31T12:28:07;2.20;;;2.10;;
8046;SDS011;67150;42.516;23.358;2023-07-31T12:30:37;2.10;;;2.00;;
8046;SDS011;67150;42.516;23.358;2023-07-31T12:33:06;2.40;;;2.20;;
8046;SDS011;67150;42.516;23.358;2023-07-31T12:35:37;2.97;;;2.03;;
8046;SDS011;67150;42.516;23.358;2023-07-31T12:38:07;2.63;;;2.43;;
8046;SDS011;67150;42.516;23.358;2023-07-31T12:40:36;2.20;;;2.10;;
8046;SDS011;67150;42.516;23.358;2023-07-31T12:43:04;2.93;;;2.73;;
8046;SDS011;67150;42.516;23.358;2023-07-31T12:45:33;2.80;;;2.60;;
8046;SDS011;67150;42.516;23.358;2023-07-31T12:48:01;2.50;;;2.40;;
8046;SDS011;67150;42.516;23.358;2023-07-31T12:50:29;2.50;;;2.30;;
8046;SDS011;67150;42.516;23.358;2023-07-31T12:52:56;2.40;;;2.20;;
8046;SDS011;67150;42.516;23.358;2023-07-31T12:55:24;2.63;;;2.53;;
8046;SDS011;67150;42.516;23.358;2023-07-31T12:57:51;2.80;;;2.60;;
8046;SDS011;67150;42.516;23.358;2023-07-31T13:00:19;2.50;;;2.40;;
8046;SDS011;67150;42.516;23.358;2023-07-31T13:02:47;2.83;;;2.63;;
8046;SDS011;67150;42.516;23.358;2023-07-31T13:05:15;2.73;;;2.53;;
8046;SDS011;67150;42.516;23.358;2023-07-31T13:07:43;2.70;;;2.50;;
8046;SDS011;67150;42.516;23.358;2023-07-31T13:10:10;2.93;;;2.73;;
8046;SDS011;67150;42.516;23.358;2023-07-31T13:12:38;3.07;;;2.87;;
8046;SDS011;67150;42.516;23.358;2023-07-31T13:15:05;3.23;;;2.87;;
8046;SDS011;67150;42.516;23.358;2023-07-31T13:17:35;3.23;;;3.03;;
8046;SDS011;67150;42.516;23.358;2023-07-31T13:20:05;3.30;;;3.07;;
8046;SDS011;67150;42.516;23.358;2023-07-31T13:22:33;3.27;;;3.07;;
8046;SDS011;67150;42.516;23.358;2023-07-31T13:25:00;3.47;;;3.17;;
8046;SDS011;67150;42.516;23.358;2023-07-31T13:27:28;3.70;;;3.40;;
8046;SDS011;67150;42.516;23.358;2023-07-31T13:29:55;3.50;;;3.30;;
8046;SDS011;67150;42.516;23.358;2023-07-31T13:32:23;4.10;;;3.80;;
8046;SDS011;67150;42.516;23.358;2023-07-31T13:34:51;4.10;;;3.70;;
8046;SDS011;67150;42.516;23.358;2023-07-31T13:37:19;4.40;;;4.10;;
8046;SDS011;67150;42.516;23.358;2023-07-31T13:39:47;4.37;;;4.07;;
8046;SDS011;67150;42.516;23.358;2023-07-31T13:42:14;4.37;;;4.07;;
8046;SDS011;67150;42.516;23.358;2023-07-31T13:44:42;4.80;;;4.50;;
8046;SDS011;67150;42.516;23.358;2023-07-31T13:47:09;4.93;;;4.63;;
8046;SDS011;67150;42.516;23.358;2023-07-31T13:49:37;5.20;;;4.80;;
8046;SDS011;67150;42.516;23.358;2023-07-31T13:52:04;5.10;;;4.70;;
8046;SDS011;67150;42.516;23.358;2023-07-31T13:54:33;5.30;;;4.90;;
8046;SDS011;67150;42.516;23.358;2023-07-31T13:57:02;5.10;;;4.70;;
8046;SDS011;67150;42.516;23.358;2023-07-31T13:59:29;4.97;;;4.60;;
8046;SDS011;67150;42.516;23.358;2023-07-31T14:01:56;5.23;;;4.83;;
8046;SDS011;67150;42.516;23.358;2023-07-31T14:04:24;5.60;;;5.10;;
8046;SDS011;67150;42.516;23.358;2023-07-31T14:06:51;5.53;;;5.10;;
8046;SDS011;67150;42.516;23.358;2023-07-31T14:09:19;7.77;;;5.53;;
8046;SDS011;67150;42.516;23.358;2023-07-31T14:11:47;6.53;;;5.93;;
8046;SDS011;67150;42.516;23.358;2023-07-31T14:14:15;7.80;;;5.40;;
8046;SDS011;67150;42.516;23.358;2023-07-31T14:16:43;5.50;;;5.00;;
8046;SDS011;67150;42.516;23.358;2023-07-31T14:19:11;5.73;;;5.30;;
8046;SDS011;67150;42.516;23.358;2023-07-31T14:21:38;6.33;;;5.67;;
8046;SDS011;67150;42.516;23.358;2023-07-31T14:24:06;5.90;;;5.43;;
8046;SDS011;67150;42.516;23.358;2023-07-31T14:26:33;5.70;;;5.30;;
8046;SDS011;67150;42.516;23.358;2023-07-31T14:29:02;5.43;;;5.03;;
8046;SDS011;67150;42.516;23.358;2023-07-31T14:31:29;5.87;;;5.30;;
8046;SDS011;67150;42.516;23.358;2023-07-31T14:33:56;5.40;;;5.00;;
8046;SDS011;67150;42.516;23.358;2023-07-31T14:36:23;5.50;;;5.10;;
8046;SDS011;67150;42.516;23.358;2023-07-31T14:38:51;5.23;;;4.83;;
8046;SDS011;67150;42.516;23.358;2023-07-31T14:41:18;5.70;;;5.20;;
8046;SDS011;67150;42.516;23.358;2023-07-31T14:43:45;4.73;;;4.40;;
8046;SDS011;67150;42.516;23.358;2023-07-31T14:46:14;5.13;;;4.63;;
8046;SDS011;67150;42.516;23.358;2023-07-31T14:48:41;5.10;;;4.80;;
8046;SDS011;67150;42.516;23.358;2023-07-31T14:51:09;4.97;;;4.57;;
8046;SDS011;67150;42.516;23.358;2023-07-31T14:53:36;5.13;;;4.63;;
8046;SDS011;67150;42.516;23.358;2023-07-31T14:56:03;4.83;;;4.53;;